首页
METAR-TAF:

METAR-TAF

机场 :

阿姆斯特丹史基浦機場

阿姆斯特丹, 荷兰

纬度: 52-18N, 经度: 004-46E, 海拔: -4米

当前天气观测

该预报发布于16分钟前的01:55 UTC
风速8节,风向
温度 14°C
湿度 72%
气压 1023 hPa
能见度10公里或以上
1500米以下无云,无积雨云

METAR: EHAM 310155Z 08008KT CAVOK 14/09 Q1023 NOSIG

时间: 04:11 (02:11 UTC)

预报

该预报发布于3小时和13分钟前的22:58 UTC
预报有效从31日的 00点(UTC)到 01日的 06点(UTC)
风速8节,风向东转东北
能见度10公里或以上
1500米以下无云,无积雨云
成为
从 31日的 06点(UTC)到 31日的 09点(UTC)
风速14节,风向
成为
从 31日的 19点(UTC)到 31日的 22点(UTC)
风速8节,风向东转东北

TAF: EHAM 302258Z 3100/0106 06008KT CAVOK BECMG 3106/3109 08014KT BECMG 3119/3122 06008KT

超过4000个机场的气象观测和天气预报(METAR&TAF报告)。

可查询的气象台以黄色和红色小点在地图上表示。

将鼠标移到小点上方,可查看气象台名称。

然后点击查看天气观测和预报。

如需切换地图:点击带黑十字的绿色按钮放大地图;点击带横线的绿色按钮缩小地图;或者点击绿色箭头查看邻近地区的地图。


METAR-TAF: